Latest Weather Observations for Cape Willoughby

IDS60801

Issued at 11:35 am CST Saturday 2 August 2014 (issued every 30 minutes, with the page automatically refreshed every 10 minutes)

About weather observations | Map of weather stations | Latest weather observations for SA | Other Formats
Station Details ID: 022803 Name: CAPE WILLOUGHBY Lat: -35.84 Lon: 138.13 Height: 55.0 m
Data from the previous 72 hours. | See also: Recent months at Cape Willoughby
Date/Time
CST
Temp
°C
App
Temp
°C
Dew
Point
Rel
Hum
%
Delta-T
°C
Wind Press
QNH
hPa
Press
MSL
hPa
Rain
since 9 am
mm
Dir
 
Spd
km/h
Gust
km/h
Spd
kts
Gust
kts
02/11:30am 12.7 7.7 8.0 73 2.3 N 24 30 13 16 1031.9 1032.0 0.0
02/11:00am 12.4 8.0 7.5 72 2.4 N 20 26 11 14 1032.1 - 0.0
02/10:30am 12.2 8.1 7.9 75 2.1 N 19 26 10 14 1032.1 1032.2 0.0
02/10:00am 11.1 7.2 7.2 77 1.9 NW 17 20 9 11 1032.1 - 0.0
02/09:30am 10.3 8.0 5.9 74 2.0 WNW 7 13 4 7 1032.0 1032.1 0.0
02/09:00am 10.3 7.2 5.5 72 2.2 S 11 15 6 8 1031.7 1031.8 1.6
02/08:30am 9.8 6.5 4.6 70 2.3 WNW 11 13 6 7 1031.2 1031.3 1.6
02/08:00am 9.2 4.8 4.6 73 2.0 WNW 17 20 9 11 1030.9 - 1.6
02/07:30am 8.3 3.2 4.3 76 1.7 WNW 20 22 11 12 1030.5 1030.6 1.6
02/07:00am 8.3 3.4 4.3 76 1.8 W 19 20 10 11 1030.2 - 1.6
02/06:30am 8.0 2.9 4.0 76 1.7 W 20 22 11 12 1029.9 1029.9 1.6
02/06:00am 7.7 2.6 4.1 78 1.5 W 20 22 11 12 1029.8 1029.8 1.6
02/05:30am 7.5 1.9 3.7 77 1.6 W 22 24 12 13 1029.4 1029.4 1.6
02/05:00am 7.4 2.3 3.3 75 1.7 WNW 19 22 10 12 1029.3 - 1.6
02/04:30am 8.0 3.3 3.3 72 2.0 WNW 17 24 9 13 1029.1 1029.1 1.6
02/04:00am 8.4 4.9 3.5 71 2.1 WNW 11 15 6 8 1029.1 - 1.6
02/03:30am 9.7 8.4 4.1 68 2.5 CALM 0 2 0 1 1029.2 1029.2 1.6
02/03:00am 10.2 5.1 3.3 62 3.0 SW 19 24 10 13 1028.9 1028.9 1.4
02/02:30am 10.6 5.5 3.9 63 2.9 S 20 26 11 14 1028.6 1028.6 1.4
02/02:00am 10.8 7.0 3.8 62 3.1 S 13 17 7 9 1028.6 - 1.4
02/01:30am 10.8 6.4 4.5 65 2.8 S 17 22 9 12 1028.4 1028.4 1.4
02/01:00am 10.8 5.9 4.0 63 3.0 S 19 24 10 13 1028.4 - 1.4
02/12:30am 10.5 4.4 4.9 68 2.5 SSW 26 35 14 19 1028.3 1028.3 1.4
02/12:00am 11.0 5.6 4.5 64 2.9 S 22 28 12 15 1028.3 1028.3 1.4
 
Date/Time
CST
Temp
°C
App
Temp
°C
Dew
Point
Rel
Hum
%
Delta-T
°C
Wind Press
QNH
hPa
Press
MSL
hPa
Rain
since 9 am
mm
Dir
 
Spd
km/h
Gust
km/h
Spd
kts
Gust
kts
01/11:30pm 10.6 5.8 5.4 70 2.4 S 20 28 11 15 1028.1 1028.1 1.4
01/11:00pm 9.2 6.2 4.0 70 2.3 SW 9 15 5 8 1028.3 - 1.4
01/10:30pm 8.9 2.8 4.7 75 1.9 SSW 26 50 14 27 1028.5 1028.5 1.4
01/10:26pm 9.0 2.5 4.6 74 1.9 SSW 28 50 15 27 1028.4 - 1.4
01/10:00pm 10.9 4.6 3.9 62 3.1 SSW 26 35 14 19 1027.9 - 1.0
01/09:30pm 11.5 5.7 2.5 54 3.9 S 22 32 12 17 1027.4 1027.4 1.0
01/09:00pm 10.9 5.3 3.5 60 3.2 S 22 41 12 22 1027.2 1027.2 1.0
01/08:30pm 11.2 5.1 0.6 48 4.4 S 22 35 12 19 1026.9 1026.9 1.0
01/08:00pm 11.0 4.5 2.8 57 3.6 SSW 26 32 14 17 1026.5 - 1.0
01/07:30pm 11.3 5.8 3.8 60 3.3 S 22 44 12 24 1025.9 1025.9 1.0
01/07:00pm 11.4 3.9 -1.4 41 5.1 S 28 39 15 21 1025.5 - 1.0
01/06:30pm 11.1 4.8 3.6 60 3.3 S 26 37 14 20 1025.1 1025.1 1.0
01/06:00pm 11.2 3.9 4.7 64 2.9 S 32 43 17 23 1024.3 1024.3 1.0
01/05:30pm 11.1 4.4 3.6 60 3.3 SSW 28 43 15 23 1023.9 1023.9 1.0
01/05:00pm 11.1 3.3 1.4 51 4.1 S 32 43 17 23 1023.4 - 1.0
01/04:30pm 11.2 2.9 2.2 54 3.8 S 35 48 19 26 1022.7 1022.7 1.0
01/04:04pm 11.0 4.1 2.6 56 3.6 SSW 28 48 15 26 1022.7 - 1.0
01/04:00pm 10.9 3.3 2.7 57 3.5 SSW 32 48 17 26 1022.7 - 1.0
01/03:30pm 10.7 3.2 3.7 62 3.1 S 32 44 17 24 1022.2 1022.2 1.0
01/03:20pm 10.6 3.0 4.1 64 2.9 S 33 52 18 28 1022.1 - 1.0
01/03:00pm 10.2 3.7 4.6 68 2.5 S 28 44 15 24 1021.9 1021.9 1.0
01/02:30pm 8.7 -2.5 3.9 72 2.1 S 52 63 28 34 1020.9 1020.9 1.0
01/02:13pm 9.9 1.3 4.7 70 2.3 S 39 76 21 41 1020.3 - 0.0
01/02:12pm 10.7 2.5 5.0 68 2.6 S 37 57 20 31 1020.5 - 0.0
01/02:00pm 10.7 2.5 5.0 68 2.6 S 37 52 20 28 1020.6 - 0.0
01/01:30pm 11.2 1.2 2.2 54 3.8 SSW 44 57 24 31 1019.8 1019.9 0.0
01/01:00pm 11.2 2.6 2.5 55 3.8 SSW 37 63 20 34 1019.3 - 0.0
01/12:30pm 10.9 0.9 4.1 63 3.0 SSW 46 65 25 35 1019.4 1019.5 0.0
01/12:27pm 10.9 0.2 4.4 64 2.9 SSW 50 69 27 37 1019.3 - 0.0
01/12:00pm 11.3 0.3 2.9 56 3.7 SSW 50 65 27 35 1018.7 1018.8 0.0
01/11:51am 11.1 0.1 2.9 57 3.6 SSW 50 70 27 38 1018.7 - 0.0
01/11:30am 10.7 -1.5 3.7 62 3.1 SSW 57 70 31 38 1018.4 1018.5 0.0
01/11:24am 10.6 -2.0 3.4 61 3.2 SSW 59 67 32 36 1018.1 - 0.0
01/11:00am 10.7 2.6 5.3 69 2.5 SSW 37 57 20 31 1018.0 - 0.0
01/10:48am 10.7 2.5 4.8 67 2.7 S 37 56 20 30 1017.7 - 0.0
01/10:46am 10.7 2.6 5.3 69 2.5 S 37 48 20 26 1017.7 - 0.0
01/10:30am 10.8 -1.4 2.9 58 3.4 SSW 56 76 30 41 1017.0 1017.1 0.0
01/10:11am 10.4 -1.5 4.5 67 2.6 SSW 56 76 30 41 1016.5 - 0.0
01/10:00am 10.7 -2.3 3.3 60 3.2 SSW 61 76 33 41 1016.2 - 0.0
01/09:52am 10.6 -2.9 2.9 59 3.3 SSW 63 70 34 38 1015.8 - 0.0
01/09:45am 9.6 0.5 4.0 68 2.5 SW 41 61 22 33 1016.1 - 0.0
01/09:37am 9.0 0.8 4.8 75 1.9 WSW 37 43 20 23 1016.5 - 0.0
01/09:30am 9.2 -3.1 3.2 66 2.6 WSW 57 80 31 43 1016.1 1016.2 0.0
01/09:03am 9.8 -1.7 4.6 70 2.3 SSW 54 78 29 42 1014.8 - 0.0
01/09:00am 9.6 -1.8 4.8 72 2.2 SSW 54 70 29 38 1015.0 1015.0 20.8
01/08:31am 9.1 -1.9 4.9 75 1.9 SW 52 72 28 39 1014.1 - 20.6
01/08:30am 9.0 -2.0 5.0 76 1.8 SW 52 70 28 38 1014.1 1014.1 20.6
01/08:18am 6.8 -2.5 5.0 88 0.8 SSW 43 61 23 33 1014.0 - 20.6
01/08:16am 6.3 -2.0 4.3 87 0.9 SSW 37 48 20 26 1014.2 - 20.6
01/08:08am 8.5 -3.9 4.5 76 1.8 SSW 59 78 32 42 1013.6 - 19.2
01/08:07am 9.2 -3.9 5.2 76 1.8 SSW 63 78 34 42 1013.6 - 19.2
01/08:03am 8.6 -0.4 4.6 76 1.8 WSW 41 61 22 33 1013.9 - 19.2
01/08:00am 8.2 -0.4 4.6 78 1.6 WSW 39 54 21 29 1013.9 - 19.2
01/07:54am 8.0 -1.1 4.0 76 1.7 WSW 41 52 22 28 1013.7 - 19.2
01/07:30am 8.6 -4.5 3.0 68 2.4 WSW 61 89 33 48 1013.1 1013.1 19.2
01/07:00am 8.2 -3.8 4.8 79 1.5 SW 57 95 31 51 1012.0 - 19.2
01/06:30am 9.3 -2.7 4.9 74 2.0 SW 57 80 31 43 1011.1 1011.1 18.4
01/06:00am 8.9 -3.6 6.0 82 1.3 SW 61 93 33 50 1010.5 1010.5 17.8
01/05:57am 8.3 -6.2 4.7 78 1.6 SSW 70 93 38 50 1010.2 - 17.8
01/05:56am 8.4 -6.9 4.4 76 1.8 SSW 74 93 40 50 1009.8 - 17.8
01/05:43am 8.6 -1.3 4.6 76 1.8 WSW 46 70 25 38 1010.4 - 17.6
01/05:30am 8.0 -2.3 4.8 80 1.4 WSW 48 61 26 33 1010.2 1010.2 17.6
01/05:02am 7.4 -4.1 4.2 80 1.4 WSW 54 72 29 39 1009.8 - 17.6
01/05:00am 7.3 -4.6 4.3 81 1.3 WSW 56 72 30 39 1009.6 - 17.6
01/04:53am 7.3 -4.6 4.4 82 1.3 SW 56 67 30 36 1009.5 - 17.4
01/04:50am 7.3 -8.5 3.9 79 1.5 SW 76 98 41 53 1009.1 - 17.2
01/04:49am 8.3 -1.7 4.5 77 1.7 WSW 46 98 25 53 1009.2 - 17.0
01/04:48am 8.5 -1.0 4.7 77 1.7 WSW 44 70 24 38 1009.4 - 17.0
01/04:41am 7.8 -1.7 3.7 75 1.8 WSW 43 52 23 28 1009.4 - 17.0
01/04:30am 7.3 -6.5 3.4 76 1.7 SW 65 83 35 45 1009.0 1009.0 17.0
01/04:27am 7.1 -6.5 4.4 83 1.2 SW 65 83 35 45 1009.1 - 17.0
01/04:24am 7.2 -6.7 4.5 83 1.2 WSW 67 82 36 44 1009.5 - 16.8
01/04:23am 7.2 -2.2 4.5 83 1.2 W 43 80 23 43 1009.5 - 16.8
01/04:17am 6.5 -2.2 4.2 85 1.0 W 39 59 21 32 1008.9 - 16.6
01/04:00am 6.5 -2.9 4.2 85 1.0 W 43 52 23 28 1008.8 - 16.6
01/03:46am 6.6 -4.5 4.3 85 1.0 W 52 72 28 39 1009.2 - 16.6
01/03:42am 6.4 -5.7 4.2 86 0.9 W 57 72 31 39 1009.2 - 16.6
01/03:40am 6.3 -0.6 4.5 88 0.8 W 30 57 16 31 1009.6 - 16.6
01/03:30am 6.4 -0.5 4.6 88 0.8 WNW 30 37 16 20 1009.1 1009.1 16.4
01/03:13am 6.7 1.0 4.9 88 0.8 WNW 24 28 13 15 1008.9 - 16.4
01/03:08am 7.0 -1.1 5.2 88 0.8 WSW 37 56 20 30 1009.0 - 16.4
01/03:00am 6.9 -2.6 4.9 87 0.9 WSW 44 56 24 30 1008.9 1008.9 16.4
01/02:58am 6.6 -2.4 4.6 87 0.9 WSW 41 56 22 30 1008.9 - 16.4
01/02:52am 6.4 -2.6 4.4 87 0.9 WNW 41 70 22 38 1009.4 - 16.0
01/02:30am 6.0 -1.9 4.2 88 0.8 WNW 35 44 19 24 1008.3 1008.3 15.6
01/02:00am 6.2 -2.5 3.9 85 1.0 W 39 57 21 31 1008.7 - 15.6
01/01:49am 5.9 -2.1 3.7 86 0.9 W 35 44 19 24 1008.7 - 15.6
01/01:47am 6.1 -6.1 3.8 85 1.0 W 57 78 31 42 1008.7 - 15.6
01/01:45am 6.2 -7.5 3.9 85 1.0 WSW 65 78 35 42 1009.1 - 15.4
01/01:38am 7.5 -1.5 4.5 81 1.3 W 41 61 22 33 1009.0 - 12.6
01/01:30am 7.3 -1.7 4.3 81 1.3 W 41 52 22 28 1008.9 1008.9 12.6
01/01:00am 7.2 -1.2 3.8 79 1.5 W 37 50 20 27 1008.6 - 12.6
01/12:31am 7.1 0.0 3.5 78 1.5 W 30 48 16 26 1008.7 - 12.6
01/12:30am 7.0 -0.5 3.4 78 1.5 W 32 48 17 26 1008.7 1008.7 12.6
01/12:00am 6.5 -1.3 2.8 77 1.5 WNW 33 43 18 23 1008.5 1008.5 12.6
 
Date/Time
CST
Temp
°C
App
Temp
°C
Dew
Point
Rel
Hum
%
Delta-T
°C
Wind Press
QNH
hPa
Press
MSL
hPa
Rain
since 9 am
mm
Dir
 
Spd
km/h
Gust
km/h
Spd
kts
Gust
kts
31/11:30pm 6.9 -1.3 2.6 74 1.8 W 35 48 19 26 1008.6 1008.6 12.6
31/11:10pm 7.5 -2.8 2.8 72 2.0 W 46 65 25 35 1008.6 - 12.6
31/11:00pm 7.6 -3.1 2.7 71 2.1 W 48 67 26 36 1008.2 - 12.6
31/10:49pm 7.5 -2.8 2.4 70 2.1 W 46 65 25 35 1008.5 - 12.6
31/10:30pm 7.5 -1.8 3.2 74 1.8 W 41 56 22 30 1008.5 1008.5 12.6
31/10:00pm 7.2 0.1 3.4 77 1.6 WNW 30 39 16 21 1008.5 - 12.6
31/09:33pm 7.7 -0.7 3.7 76 1.7 W 37 72 20 39 1008.5 - 12.4
31/09:30pm 7.7 0.1 3.7 76 1.7 W 33 52 18 28 1008.3 1008.3 12.2
31/09:28pm 7.6 0.5 3.6 76 1.7 W 30 52 16 28 1008.3 - 12.2
31/09:00pm 8.0 -0.4 3.7 74 1.9 W 37 52 20 28 1008.7 1008.7 12.2
31/08:59pm 8.0 -0.4 3.8 75 1.8 W 37 52 20 28 1008.7 - 12.2
31/08:30pm 7.4 1.0 3.3 75 1.7 WNW 26 32 14 17 1007.9 1007.9 12.2
31/08:00pm 7.3 -0.2 3.2 75 1.7 WNW 32 39 17 21 1007.6 - 12.2
31/07:30pm 7.0 0.2 3.1 76 1.6 WNW 28 35 15 19 1007.4 1007.4 12.2
31/07:00pm 8.1 0.9 3.2 71 2.1 W 30 37 16 20 1007.1 - 12.2
31/06:30pm 8.2 -0.3 2.9 69 2.3 W 37 57 20 31 1006.8 1006.8 12.2
31/06:23pm 8.4 0.4 3.8 73 2.0 W 35 57 19 31 1006.7 - 12.2
31/06:00pm 8.2 1.6 4.2 76 1.8 W 28 39 15 21 1006.1 1006.1 12.2
31/05:30pm 8.4 1.9 4.8 78 1.6 W 28 37 15 20 1005.8 1005.8 12.2
31/05:00pm 8.6 -0.8 4.4 75 1.9 W 43 63 23 34 1005.4 - 12.2
31/04:51pm 8.5 0.7 5.1 79 1.5 W 35 56 19 30 1005.7 - 12.2
31/04:30pm 8.5 1.2 5.4 81 1.4 W 33 46 18 25 1005.2 1005.2 12.2
31/04:27pm 8.6 1.3 5.5 81 1.4 W 33 46 18 25 1005.2 - 12.2
31/04:00pm 8.0 -2.0 6.0 87 0.9 WSW 48 67 26 36 1005.0 - 12.2
31/03:30pm 8.6 -2.9 6.4 86 1.0 WSW 56 82 30 44 1003.9 1003.9 11.8
31/03:07pm 9.3 -0.4 7.6 89 0.8 WSW 48 67 26 36 1003.7 - 11.6
31/03:00pm 9.5 -2.0 7.1 85 1.1 W 57 67 31 36 1003.5 1003.5 11.2
31/02:55pm 9.9 2.7 7.5 85 1.1 W 35 61 19 33 1003.4 - 11.2
31/02:30pm 9.5 2.3 7.6 88 0.9 W 35 48 19 26 1003.1 1003.1 11.0
31/02:00pm 9.4 1.1 7.8 90 0.8 W 41 56 22 30 1003.0 - 11.0
31/01:35pm 10.0 2.9 8.1 88 0.9 W 35 57 19 31 1002.6 - 10.6
31/01:30pm 10.1 2.2 8.0 87 1.0 W 39 56 21 30 1002.6 1002.6 10.4
31/01:00pm 10.6 3.4 7.8 83 1.4 W 35 46 19 25 1002.1 - 10.4
31/12:30pm 9.7 2.1 7.6 87 1.0 W 37 57 20 31 1002.6 1002.6 10.4
31/12:07pm 9.7 0.9 8.1 90 0.8 W 44 63 24 34 1003.2 - 10.4
31/12:00pm 9.6 0.0 7.9 89 0.8 W 48 63 26 34 1003.0 1003.0 10.2
31/11:35am 10.4 2.7 8.7 89 0.8 W 39 61 21 33 1003.0 - 9.8
31/11:30am 10.5 2.9 8.9 90 0.8 W 39 52 21 28 1002.9 1002.9 9.8
31/11:02am 10.5 3.7 9.1 91 0.7 WSW 35 61 19 33 1002.6 - 9.6
31/11:00am 10.7 4.0 9.6 93 0.6 WSW 35 46 19 25 1002.7 - 9.6
31/10:43am 10.5 2.6 9.4 93 0.6 WSW 41 59 22 32 1002.8 - 9.4
31/10:30am 10.7 2.9 9.6 93 0.6 WSW 41 57 22 31 1002.5 1002.5 9.0
31/10:00am 11.0 2.9 9.9 93 0.6 W 43 65 23 35 1002.3 - 7.4
31/09:55am 11.7 3.4 9.9 89 0.9 W 44 65 24 35 1002.4 - 2.6
31/09:53am 12.2 2.7 9.9 86 1.2 W 50 65 27 35 1002.2 - 0.2
31/09:30am 13.6 3.3 11.7 88 1.0 NNW 57 80 31 43 1000.3 1000.4 0.0
31/09:00am 13.4 3.7 11.8 90 0.9 NNW 54 76 29 41 1000.6 1000.7 0.0
31/08:30am 13.3 4.4 11.9 91 0.8 NNW 50 69 27 37 1000.8 1000.9 0.0
31/08:03am 13.4 3.3 11.8 90 0.9 NNW 56 76 30 41 1000.7 - 0.0
31/08:00am 13.4 4.1 11.8 90 0.9 NNW 52 67 28 36 1000.9 - 0.0
31/07:38am 13.3 5.1 11.7 90 0.9 NNW 46 65 25 35 1001.7 - 0.0
31/07:30am 13.4 5.2 11.6 89 1.0 NNW 46 59 25 32 1001.7 1001.7 0.0
31/07:00am 13.5 4.9 11.6 88 1.0 NNW 48 70 26 38 1002.1 - 0.0
31/06:34am 13.4 5.1 11.5 88 1.0 NW 46 65 25 35 1002.5 - 0.0
31/06:30am 13.5 4.4 11.4 87 1.1 NW 50 65 27 35 1002.4 1002.4 0.0
31/06:00am 13.4 4.8 11.5 88 1.0 NNW 48 67 26 36 1002.4 1002.4 0.0
31/05:30am 13.3 4.2 11.2 87 1.1 NNW 50 67 27 36 1002.5 1002.5 0.0
31/05:03am 13.4 4.6 11.1 86 1.2 NNW 48 70 26 38 1002.6 - 0.0
31/05:00am 13.4 4.6 11.1 86 1.2 NNW 48 65 26 35 1002.7 - 0.0
31/04:38am 13.5 5.1 11.2 86 1.2 NNW 46 65 25 35 1003.1 - 0.0
31/04:30am 13.5 4.3 11.0 85 1.3 NNW 50 65 27 35 1003.2 1003.2 0.0
31/04:00am 13.5 4.7 10.9 84 1.4 NW 48 69 26 37 1003.6 - 0.0
31/03:43am 13.5 5.1 10.9 84 1.4 NW 46 65 25 35 1003.8 - 0.0
31/03:30am 13.4 4.9 10.8 84 1.4 NW 46 61 25 33 1004.3 1004.3 0.0
31/03:00am 13.5 5.1 10.9 84 1.4 NNW 46 65 25 35 1004.6 1004.6 0.0
31/02:33am 13.4 4.6 10.8 84 1.4 NNW 48 69 26 37 1004.7 - 0.0
31/02:30am 13.4 4.6 10.8 84 1.4 NNW 48 65 26 35 1005.0 1005.0 0.0
31/02:00am 13.4 4.6 10.9 85 1.3 NNW 48 65 26 35 1005.2 - 0.0
31/01:53am 13.3 5.3 11.0 86 1.2 NNW 44 65 24 35 1005.3 - 0.0
31/01:30am 13.7 5.9 11.0 84 1.4 NNW 43 57 23 31 1005.8 1005.8 0.0
31/01:00am 13.8 5.8 10.4 80 1.8 NW 43 61 23 33 1006.5 - 0.0
31/12:49am 13.9 6.3 10.5 80 1.8 NW 41 65 22 35 1006.6 - 0.0
31/12:30am 13.8 7.4 10.8 82 1.6 NNW 35 50 19 27 1007.2 1007.2 0.0
31/12:00am 13.9 6.0 10.9 82 1.6 NNW 43 61 23 33 1007.5 1007.5 0.0
 
Date/Time
CST
Temp
°C
App
Temp
°C
Dew
Point
Rel
Hum
%
Delta-T
°C
Wind Press
QNH
hPa
Press
MSL
hPa
Rain
since 9 am
mm
Dir
 
Spd
km/h
Gust
km/h
Spd
kts
Gust
kts
30/11:58pm 13.9 6.0 10.9 82 1.6 NNW 43 61 23 33 1007.5 - 0.0
30/11:30pm 14.0 6.1 10.8 81 1.7 NNW 43 54 23 29 1007.9 1007.9 0.0
30/11:00pm 14.1 6.9 10.7 80 1.8 NNW 39 56 21 30 1008.7 - 0.0
30/10:30pm 14.4 6.8 10.6 78 2.0 NNW 41 57 22 31 1009.2 1009.2 0.0
30/10:10pm 14.6 6.4 10.4 76 2.2 NW 44 63 24 34 1009.4 - 0.0
30/10:00pm 14.5 6.5 10.5 77 2.1 NNW 43 56 23 30 1009.6 - 0.0
30/09:30pm 14.4 6.7 11.4 82 1.6 NNW 43 61 23 33 1009.9 1009.9 0.0
30/09:14pm 14.3 7.4 11.6 84 1.4 NNW 39 59 21 32 1010.0 - 0.0
30/09:00pm 14.2 6.6 11.7 85 1.3 NNW 43 56 23 30 1010.1 1010.1 0.0
30/08:49pm 14.1 6.6 12.0 87 1.1 NNW 43 69 23 37 1010.3 - 0.0
30/08:30pm 14.1 6.7 12.3 89 1.0 NNW 43 57 23 31 1010.7 1010.7 0.0
30/08:09pm 14.2 7.5 12.2 88 1.1 NNW 39 57 21 31 1010.9 - 0.0
30/08:00pm 14.2 8.2 12.2 88 1.1 NNW 35 50 19 27 1011.2 - 0.0
30/07:30pm 14.3 7.6 12.3 88 1.1 NNW 39 50 21 27 1011.7 1011.7 0.0
30/07:00pm 14.3 7.7 12.5 89 1.0 NNW 39 54 21 29 1011.6 - 0.0
30/06:39pm 14.3 7.3 12.5 89 1.0 NNW 41 61 22 33 1011.6 - 0.0
30/06:30pm 14.4 7.4 12.4 88 1.1 NNW 41 57 22 31 1011.6 1011.6 0.0
30/06:27pm 14.3 7.7 12.5 89 1.0 NNW 39 57 21 31 1011.6 - 0.0
30/06:00pm 14.4 6.9 12.6 89 1.0 NNW 44 57 24 31 1011.5 1011.5 0.0
30/05:30pm 14.3 7.0 12.7 90 0.9 NNW 43 59 23 32 1011.3 1011.3 0.0
30/05:13pm 14.5 7.2 12.7 89 1.0 NNW 43 63 23 34 1011.2 - 0.0
30/05:00pm 14.6 7.3 12.8 89 1.0 NNW 43 56 23 30 1011.3 - 0.0
30/04:30pm 14.7 7.4 12.9 89 1.0 NNW 43 56 23 30 1011.4 1011.4 0.0
30/04:00pm 14.7 7.4 12.9 89 1.0 NNW 43 50 23 27 1011.6 - 0.0
30/03:30pm 15.2 9.3 12.5 84 1.5 NNW 35 46 19 25 1011.9 1011.9 0.0
30/03:00pm 15.9 9.1 11.9 77 2.2 NNW 39 54 21 29 1012.0 1012.0 0.0
30/02:50pm 16.3 8.5 11.7 74 2.5 NW 44 65 24 35 1012.0 - 0.0
30/02:30pm 15.9 7.7 11.7 76 2.3 NW 46 65 25 35 1012.0 1012.0 0.0
30/02:00pm 16.5 9.5 11.2 71 2.9 NW 39 57 21 31 1012.4 - 0.0
30/01:30pm 17.0 10.2 12.1 73 2.7 NW 39 52 21 28 1012.9 1012.9 0.0
30/01:06pm 16.5 9.0 10.8 69 3.1 NW 41 59 22 32 1013.4 - 0.0
30/01:00pm 16.6 8.5 10.7 68 3.2 NW 44 59 24 32 1013.6 - 0.0
30/12:30pm 16.7 9.0 10.3 66 3.4 WNW 41 56 22 30 1014.0 1014.0 0.0
30/12:11pm 16.1 8.9 10.6 70 2.9 WNW 39 59 21 32 1014.4 - 0.0
30/12:00pm 16.0 7.8 10.3 69 3.0 WNW 44 59 24 32 1014.5 1014.5 0.0

Other Formats:

Comma delimited format used in spreadsheet applications
http://www.bom.gov.au/fwo/IDS60801/IDS60801.94822.axf

JavaScript Object Notation format (JSON) in row-major order
http://www.bom.gov.au/fwo/IDS60801/IDS60801.94822.json